Time;durP1;ratioP1;P1;durP2;ratioP2;P2;SDS_P1;SDS_P2;PMS_P1;PMS_P2;Temp;Humidity;BMP_temperature;BMP_pressure;BME280_temperature;BME280_humidity;BME280_pressure;Samples;Min_cycle;Max_cycle;Signal;HPM_P1;HPM_P2
2023/08/08 00:02:17;;;;;;;1.08;0.60;;;;;;;;;;5056958;28;20703;-62
2023/08/08 00:04:46;;;;;;;1.02;0.60;;;;;;;;;;5056047;28;20512;-64
2023/08/08 00:07:14;;;;;;;1.05;0.60;;;;;;;;;;5059450;28;20048;-61
2023/08/08 00:09:44;;;;;;;1.00;0.52;;;;;;;;;;5058073;28;20523;-64
2023/08/08 00:12:12;;;;;;;1.92;0.70;;;;;;;;;;5057761;28;20045;-62
2023/08/08 00:14:41;;;;;;;1.45;0.50;;;;;;;;;;5056912;28;20045;-62
2023/08/08 00:17:09;;;;;;;2.47;0.52;;;;;;;;;;5057000;28;20123;-61
2023/08/08 00:19:38;;;;;;;1.00;0.57;;;;;;;;;;5058104;28;20079;-61
2023/08/08 00:22:06;;;;;;;1.20;0.52;;;;;;;;;;5057880;28;20040;-61
2023/08/08 00:24:34;;;;;;;0.77;0.43;;;;;;;;;;5057677;28;20053;-62
2023/08/08 00:27:04;;;;;;;1.08;0.70;;;;;;;;;;5059611;28;20040;-62
2023/08/08 00:29:33;;;;;;;0.88;0.60;;;;;;;;;;5059337;28;20052;-67
2023/08/08 00:32:01;;;;;;;0.95;0.57;;;;;;;;;;5055355;28;20049;-65
2023/08/08 00:34:30;;;;;;;1.17;0.43;;;;;;;;;;5059700;28;20049;-62
2023/08/08 00:36:58;;;;;;;3.00;0.65;;;;;;;;;;5055783;28;20126;-60
2023/08/08 00:39:26;;;;;;;1.50;0.60;;;;;;;;;;5057564;28;20610;-63
2023/08/08 00:41:55;;;;;;;0.63;0.52;;;;;;;;;;5057252;28;20076;-63
2023/08/08 00:44:25;;;;;;;1.13;0.70;;;;;;;;;;5060670;28;20245;-64
2023/08/08 00:46:54;;;;;;;0.95;0.60;;;;;;;;;;5058012;28;20053;-61
2023/08/08 00:49:22;;;;;;;0.95;0.60;;;;;;;;;;5060794;28;20052;-61
2023/08/08 00:51:51;;;;;;;0.65;0.35;;;;;;;;;;5055369;28;20457;-63
2023/08/08 00:54:21;;;;;;;1.70;0.50;;;;;;;;;;5056259;28;20094;-66
2023/08/08 00:56:49;;;;;;;1.63;0.52;;;;;;;;;;5056474;28;20060;-65
2023/08/08 00:59:20;;;;;;;0.77;0.60;;;;;;;;;;5061546;28;20040;-61
2023/08/08 01:01:50;;;;;;;3.50;1.05;;;;;;;;;;5080527;22;20048;-91
2023/08/08 01:04:18;;;;;;;0.95;0.60;;;;;;;;;;5058378;28;20079;-88
2023/08/08 01:06:50;;;;;;;2.45;0.80;;;;;;;;;;5059574;28;20052;-91
2023/08/08 01:09:21;;;;;;;0.65;0.60;;;;;;;;;;5059394;28;20064;-89
2023/08/08 01:11:49;;;;;;;0.77;0.50;;;;;;;;;;5060893;28;20056;-84
2023/08/08 01:14:19;;;;;;;0.90;0.63;;;;;;;;;;5061435;28;20055;-91
2023/08/08 01:16:48;;;;;;;0.82;0.50;;;;;;;;;;5062977;28;20056;-90
2023/08/08 01:19:25;;;;;;;12.02;1.02;;;;;;;;;;5058058;28;20054;-83
2023/08/08 01:21:54;;;;;;;1.50;0.77;;;;;;;;;;5061599;28;20040;-86
2023/08/08 01:24:28;;;;;;;1.35;0.63;;;;;;;;;;5063315;28;20509;-91
2023/08/08 01:26:57;;;;;;;0.93;0.60;;;;;;;;;;5062943;28;20503;-90
2023/08/08 01:29:25;;;;;;;1.10;0.50;;;;;;;;;;5063167;28;20834;-88
2023/08/08 01:31:54;;;;;;;2.35;0.80;;;;;;;;;;5065162;28;20052;-90
2023/08/08 01:34:23;;;;;;;0.95;0.55;;;;;;;;;;5063256;28;20055;-92
2023/08/08 01:36:54;;;;;;;2.33;0.73;;;;;;;;;;5079566;28;20052;-85
2023/08/08 01:39:24;;;;;;;1.33;0.60;;;;;;;;;;5078640;28;20035;-91
2023/08/08 01:41:54;;;;;;;1.00;0.70;;;;;;;;;;5078933;28;20397;-89
2023/08/08 01:44:24;;;;;;;1.35;0.70;;;;;;;;;;5077626;28;20051;-86
2023/08/08 01:46:53;;;;;;;0.95;0.52;;;;;;;;;;5079233;28;20048;-91
2023/08/08 01:49:22;;;;;;;1.10;0.60;;;;;;;;;;5079283;28;20049;-92
2023/08/08 01:51:52;;;;;;;1.55;0.82;;;;;;;;;;5078628;28;20052;-90
2023/08/08 01:54:20;;;;;;;1.65;0.70;;;;;;;;;;5076860;28;20496;-88
2023/08/08 01:56:49;;;;;;;2.65;0.57;;;;;;;;;;5079073;28;20067;-87
2023/08/08 01:59:18;;;;;;;1.25;0.70;;;;;;;;;;5083808;28;20048;-89
2023/08/08 02:01:47;;;;;;;2.63;0.60;;;;;;;;;;5078006;28;20052;-90
2023/08/08 02:04:15;;;;;;;2.88;0.73;;;;;;;;;;5079630;28;20051;-92
2023/08/08 02:06:44;;;;;;;0.85;0.52;;;;;;;;;;5079858;28;20036;-90
2023/08/08 02:09:14;;;;;;;0.63;0.50;;;;;;;;;;5079077;28;20093;-89
2023/08/08 02:11:43;;;;;;;2.40;0.75;;;;;;;;;;5078217;28;20106;-91
2023/08/08 02:14:11;;;;;;;0.95;0.68;;;;;;;;;;5081597;28;20052;-92
2023/08/08 02:16:42;;;;;;;1.65;0.70;;;;;;;;;;5080595;28;20605;-91
2023/08/08 02:19:10;;;;;;;1.00;0.55;;;;;;;;;;5080192;28;20058;-88
2023/08/08 02:21:39;;;;;;;4.28;0.60;;;;;;;;;;5079383;28;20105;-88
2023/08/08 02:24:07;;;;;;;1.05;0.60;;;;;;;;;;5078442;28;20052;-91
2023/08/08 02:26:35;;;;;;;0.52;0.50;;;;;;;;;;5081695;28;20116;-92
2023/08/08 02:29:04;;;;;;;1.35;0.73;;;;;;;;;;5079347;28;20117;-89
2023/08/08 02:31:32;;;;;;;3.58;1.90;;;;;;;;;;5082291;28;20593;-91
2023/08/08 02:34:02;;;;;;;1.35;0.63;;;;;;;;;;5079009;28;20059;-87
2023/08/08 02:36:30;;;;;;;2.38;0.70;;;;;;;;;;5078755;28;20040;-89
2023/08/08 02:38:59;;;;;;;1.17;0.70;;;;;;;;;;5075310;28;20063;-85
2023/08/08 02:41:27;;;;;;;0.70;0.50;;;;;;;;;;5080239;28;20465;-92
2023/08/08 02:43:56;;;;;;;1.48;0.57;;;;;;;;;;5080194;28;20047;-90
2023/08/08 02:46:24;;;;;;;0.47;0.40;;;;;;;;;;5080257;28;20101;-91
2023/08/08 02:48:53;;;;;;;0.88;0.52;;;;;;;;;;5082413;28;20051;-92
2023/08/08 02:51:22;;;;;;;1.50;0.60;;;;;;;;;;5080173;28;21029;-88
2023/08/08 02:53:51;;;;;;;1.13;0.60;;;;;;;;;;5084975;28;20079;-83
2023/08/08 02:56:19;;;;;;;1.15;0.70;;;;;;;;;;5084717;28;20861;-87
2023/08/08 02:58:47;;;;;;;1.95;0.65;;;;;;;;;;5084851;28;20052;-85
2023/08/08 03:01:16;;;;;;;1.50;0.70;;;;;;;;;;5083806;28;20048;-91
2023/08/08 03:03:44;;;;;;;1.10;0.55;;;;;;;;;;5083435;28;20084;-89
2023/08/08 03:06:13;;;;;;;2.50;0.63;;;;;;;;;;5085409;28;20073;-90
2023/08/08 03:08:43;;;;;;;3.03;0.60;;;;;;;;;;5084519;28;20052;-91
2023/08/08 03:11:11;;;;;;;1.17;0.75;;;;;;;;;;5081105;28;20106;-89
2023/08/08 03:13:39;;;;;;;2.35;0.80;;;;;;;;;;5082289;28;20048;-89
2023/08/08 03:16:08;;;;;;;2.28;0.57;;;;;;;;;;5082713;28;20569;-91
2023/08/08 03:18:36;;;;;;;1.20;0.60;;;;;;;;;;5085465;28;20468;-91
2023/08/08 03:21:05;;;;;;;1.42;0.82;;;;;;;;;;5085090;28;20504;-85
2023/08/08 03:23:33;;;;;;;1.70;0.68;;;;;;;;;;5083761;28;20052;-91
2023/08/08 03:26:03;;;;;;;1.08;0.70;;;;;;;;;;5084136;28;20048;-91
2023/08/08 03:28:31;;;;;;;1.55;0.80;;;;;;;;;;5086614;28;20060;-83
2023/08/08 03:31:00;;;;;;;1.40;0.65;;;;;;;;;;5083973;28;20044;-85
2023/08/08 03:33:28;;;;;;;2.80;0.77;;;;;;;;;;5086142;28;20052;-92
2023/08/08 03:35:56;;;;;;;1.92;0.95;;;;;;;;;;5082975;28;20052;-89
2023/08/08 03:38:25;;;;;;;1.10;0.50;;;;;;;;;;5080049;28;20044;-90
2023/08/08 03:40:53;;;;;;;0.90;0.70;;;;;;;;;;5083026;28;20557;-90
2023/08/08 03:43:23;;;;;;;2.28;0.68;;;;;;;;;;5081882;28;20052;-92
2023/08/08 03:45:52;;;;;;;4.40;0.65;;;;;;;;;;5083189;28;20085;-90
2023/08/08 03:48:20;;;;;;;1.55;0.77;;;;;;;;;;5081238;28;20071;-88
2023/08/08 03:50:48;;;;;;;2.08;0.80;;;;;;;;;;5080038;28;20056;-91
2023/08/08 03:53:17;;;;;;;3.47;0.50;;;;;;;;;;5079167;28;20476;-91
2023/08/08 03:55:45;;;;;;;1.67;0.73;;;;;;;;;;5079724;28;21352;-88
2023/08/08 03:58:14;;;;;;;2.17;0.80;;;;;;;;;;5079094;28;20060;-89
2023/08/08 04:00:46;;;;;;;1.40;0.60;;;;;;;;;;5078531;28;20477;-91
2023/08/08 04:03:15;;;;;;;1.30;0.70;;;;;;;;;;5081404;28;20082;-88
2023/08/08 04:05:47;;;;;;;2.13;0.55;;;;;;;;;;5084015;28;20052;-91
2023/08/08 04:08:15;;;;;;;1.10;0.60;;;;;;;;;;5084569;28;20124;-87
2023/08/08 04:10:44;;;;;;;2.28;0.70;;;;;;;;;;5080051;28;20049;-92
2023/08/08 04:13:12;;;;;;;1.17;0.90;;;;;;;;;;5081223;28;20424;-85
2023/08/08 04:15:40;;;;;;;1.13;0.68;;;;;;;;;;5081801;28;20142;-92
2023/08/08 04:18:10;;;;;;;1.02;0.50;;;;;;;;;;5083650;28;20133;-84
2023/08/08 04:20:39;;;;;;;1.15;0.68;;;;;;;;;;5084289;28;20416;-92
2023/08/08 04:23:08;;;;;;;2.33;0.73;;;;;;;;;;5079168;28;20047;-90
2023/08/08 04:25:36;;;;;;;2.55;1.00;;;;;;;;;;5080705;28;20063;-88
2023/08/08 04:28:05;;;;;;;1.38;0.77;;;;;;;;;;5081169;28;20067;-92
2023/08/08 04:30:33;;;;;;;1.40;0.80;;;;;;;;;;5081211;28;20454;-92
2023/08/08 04:33:02;;;;;;;1.50;0.68;;;;;;;;;;5084845;28;20056;-91
2023/08/08 04:35:32;;;;;;;2.70;1.02;;;;;;;;;;5077441;28;20049;-90
2023/08/08 04:38:00;;;;;;;1.45;0.63;;;;;;;;;;5081041;28;20069;-90
2023/08/08 04:40:28;;;;;;;3.03;0.90;;;;;;;;;;5081762;28;20675;-85
2023/08/08 04:42:57;;;;;;;3.42;0.90;;;;;;;;;;5083215;28;20058;-89
2023/08/08 04:45:28;;;;;;;1.67;0.65;;;;;;;;;;5081122;28;20040;-90
2023/08/08 04:47:57;;;;;;;1.98;0.70;;;;;;;;;;5082058;28;20055;-91
2023/08/08 04:50:26;;;;;;;0.70;0.50;;;;;;;;;;5079722;28;20121;-90
2023/08/08 04:52:56;;;;;;;1.90;0.82;;;;;;;;;;5080864;28;20048;-85
2023/08/08 04:55:24;;;;;;;1.75;1.10;;;;;;;;;;5081368;28;20094;-92
2023/08/08 04:57:52;;;;;;;1.58;0.80;;;;;;;;;;5083710;28;20052;-90
2023/08/08 05:00:21;;;;;;;1.20;0.70;;;;;;;;;;5080978;28;20053;-91
2023/08/08 05:02:49;;;;;;;2.13;0.68;;;;;;;;;;5081556;28;20053;-90
2023/08/08 05:05:18;;;;;;;2.58;0.88;;;;;;;;;;5078141;28;20500;-92
2023/08/08 05:07:46;;;;;;;1.30;0.57;;;;;;;;;;5083468;28;20044;-89
2023/08/08 05:10:16;;;;;;;2.08;0.98;;;;;;;;;;5079113;28;20700;-91
2023/08/08 05:12:45;;;;;;;1.65;1.00;;;;;;;;;;5079311;28;20048;-89
2023/08/08 05:15:13;;;;;;;0.80;0.60;;;;;;;;;;5077804;28;20060;-90
2023/08/08 05:17:41;;;;;;;1.58;0.93;;;;;;;;;;5079219;28;20052;-88
2023/08/08 05:20:10;;;;;;;1.77;0.70;;;;;;;;;;5077906;28;20051;-92
2023/08/08 05:22:39;;;;;;;2.47;0.80;;;;;;;;;;5072353;28;20050;-93
2023/08/08 05:25:08;;;;;;;1.27;0.70;;;;;;;;;;5079727;28;20132;-91
2023/08/08 05:27:37;;;;;;;3.28;0.93;;;;;;;;;;5078974;28;20036;-84
2023/08/08 05:30:06;;;;;;;1.90;1.00;;;;;;;;;;5064446;28;20174;-89
2023/08/08 05:32:34;;;;;;;1.00;0.75;;;;;;;;;;5072497;28;20079;-90
2023/08/08 05:35:04;;;;;;;3.50;0.85;;;;;;;;;;5073548;28;20052;-91
2023/08/08 05:37:32;;;;;;;5.47;1.10;;;;;;;;;;5074920;28;20461;-86
2023/08/08 05:40:01;;;;;;;2.33;0.75;;;;;;;;;;5077032;28;20047;-90
2023/08/08 05:42:31;;;;;;;1.45;0.88;;;;;;;;;;5075802;28;20086;-86
2023/08/08 05:45:01;;;;;;;2.40;0.63;;;;;;;;;;5078411;28;20166;-92
2023/08/08 05:47:30;;;;;;;2.78;1.10;;;;;;;;;;5077874;28;20055;-92
2023/08/08 05:49:58;;;;;;;1.38;0.88;;;;;;;;;;5075479;28;20040;-85
2023/08/08 05:52:26;;;;;;;5.53;0.93;;;;;;;;;;5072271;28;20044;-88
2023/08/08 05:54:55;;;;;;;1.52;0.70;;;;;;;;;;5078095;28;20672;-86
2023/08/08 05:57:23;;;;;;;2.05;0.77;;;;;;;;;;5078103;28;20055;-91
2023/08/08 05:59:52;;;;;;;1.80;0.70;;;;;;;;;;5078780;28;20098;-89
2023/08/08 06:02:22;;;;;;;1.63;0.80;;;;;;;;;;5075242;28;20432;-88
2023/08/08 06:04:50;;;;;;;2.78;0.80;;;;;;;;;;5075420;28;21719;-88
2023/08/08 06:07:19;;;;;;;2.35;1.00;;;;;;;;;;5077039;28;20051;-88
2023/08/08 06:09:47;;;;;;;1.58;1.02;;;;;;;;;;5076435;28;20048;-92
2023/08/08 06:12:16;;;;;;;1.10;0.68;;;;;;;;;;5075255;28;20068;-91
2023/08/08 06:14:44;;;;;;;2.58;0.70;;;;;;;;;;5077842;28;20516;-88
2023/08/08 06:17:13;;;;;;;2.00;1.05;;;;;;;;;;5079039;28;20085;-85
2023/08/08 06:19:42;;;;;;;3.42;1.00;;;;;;;;;;5077731;28;20093;-88
2023/08/08 06:22:11;;;;;;;1.20;0.88;;;;;;;;;;5076786;28;20069;-92
2023/08/08 06:24:39;;;;;;;2.03;0.70;;;;;;;;;;5074073;28;20135;-82
2023/08/08 06:27:08;;;;;;;1.60;0.75;;;;;;;;;;5077150;28;20051;-92
2023/08/08 06:29:37;;;;;;;1.60;0.80;;;;;;;;;;5080599;28;20044;-90
2023/08/08 06:32:05;;;;;;;3.72;1.00;;;;;;;;;;5079257;28;20078;-92
2023/08/08 06:34:34;;;;;;;1.02;0.82;;;;;;;;;;5077250;28;20139;-89
2023/08/08 06:37:03;;;;;;;1.27;0.93;;;;;;;;;;5078296;28;20053;-87
2023/08/08 06:39:32;;;;;;;2.20;0.80;;;;;;;;;;5075695;28;20054;-83
2023/08/08 06:42:00;;;;;;;1.10;0.70;;;;;;;;;;5080613;28;20044;-89
2023/08/08 06:44:29;;;;;;;1.65;0.75;;;;;;;;;;5076197;28;20036;-89
2023/08/08 06:46:58;;;;;;;2.97;0.80;;;;;;;;;;5075351;28;20051;-92
2023/08/08 06:49:26;;;;;;;2.33;0.90;;;;;;;;;;5079205;28;20048;-93
2023/08/08 06:51:54;;;;;;;1.35;0.90;;;;;;;;;;5076074;28;20049;-88
2023/08/08 06:54:24;;;;;;;1.52;0.98;;;;;;;;;;5073380;28;20061;-91
2023/08/08 06:56:53;;;;;;;1.63;0.98;;;;;;;;;;5081466;28;20105;-90
2023/08/08 06:59:21;;;;;;;1.83;1.25;;;;;;;;;;5078571;28;20455;-89
2023/08/08 07:01:50;;;;;;;1.05;0.60;;;;;;;;;;5080958;28;20044;-90
2023/08/08 07:04:18;;;;;;;1.30;0.70;;;;;;;;;;5075977;28;20572;-90
2023/08/08 07:06:47;;;;;;;2.10;1.17;;;;;;;;;;5080052;28;20087;-87
2023/08/08 07:09:15;;;;;;;1.17;0.88;;;;;;;;;;5078993;28;20049;-91
2023/08/08 07:11:45;;;;;;;2.53;0.70;;;;;;;;;;5080181;28;20056;-92
2023/08/08 07:14:14;;;;;;;1.73;0.75;;;;;;;;;;5080079;28;20054;-85
2023/08/08 07:16:42;;;;;;;2.03;0.70;;;;;;;;;;5080912;28;20052;-90
2023/08/08 07:19:11;;;;;;;3.15;0.75;;;;;;;;;;5075669;28;20069;-91
2023/08/08 07:21:40;;;;;;;1.83;0.70;;;;;;;;;;5076819;28;20246;-87
2023/08/08 07:24:09;;;;;;;2.28;0.70;;;;;;;;;;5077532;28;20048;-93
2023/08/08 07:26:38;;;;;;;2.20;0.88;;;;;;;;;;5076261;28;20771;-84
2023/08/08 07:29:08;;;;;;;4.75;1.08;;;;;;;;;;5077183;28;20500;-85
2023/08/08 07:31:36;;;;;;;2.58;0.70;;;;;;;;;;5078722;28;20419;-91
2023/08/08 07:34:05;;;;;;;2.97;0.90;;;;;;;;;;5071270;28;20551;-91
2023/08/08 07:36:33;;;;;;;2.15;0.90;;;;;;;;;;5075521;28;20044;-92
2023/08/08 07:39:01;;;;;;;1.60;0.90;;;;;;;;;;5075600;28;20051;-86
2023/08/08 07:41:31;;;;;;;0.95;0.60;;;;;;;;;;5081136;28;20044;-92
2023/08/08 07:43:59;;;;;;;2.97;1.20;;;;;;;;;;5078416;28;20496;-92
2023/08/08 07:46:29;;;;;;;1.67;0.80;;;;;;;;;;5083498;28;20044;-91
2023/08/08 07:48:59;;;;;;;1.38;0.60;;;;;;;;;;5082702;28;20055;-87
2023/08/08 07:51:27;;;;;;;1.88;0.77;;;;;;;;;;5082068;28;20104;-92
2023/08/08 07:53:55;;;;;;;1.80;0.75;;;;;;;;;;5081426;28;20415;-91
2023/08/08 07:56:24;;;;;;;1.85;0.82;;;;;;;;;;5074760;28;20055;-88
2023/08/08 07:58:52;;;;;;;1.90;0.85;;;;;;;;;;5082947;28;20048;-88
2023/08/08 08:01:21;;;;;;;1.15;0.70;;;;;;;;;;5080685;28;20044;-89
2023/08/08 08:03:51;;;;;;;2.15;0.90;;;;;;;;;;5082950;28;20044;-91
2023/08/08 08:06:20;;;;;;;1.00;0.70;;;;;;;;;;5079613;28;20481;-93
2023/08/08 08:08:48;;;;;;;3.40;0.82;;;;;;;;;;5079486;28;20044;-90
2023/08/08 08:11:19;;;;;;;1.38;0.73;;;;;;;;;;5080048;28;20052;-88
2023/08/08 08:13:47;;;;;;;1.45;0.90;;;;;;;;;;5081033;28;20101;-86
2023/08/08 08:16:16;;;;;;;1.35;0.68;;;;;;;;;;5079968;28;20050;-92
2023/08/08 08:18:45;;;;;;;1.60;0.70;;;;;;;;;;5079834;28;20101;-85
2023/08/08 08:21:17;;;;;;;2.15;0.90;;;;;;;;;;5076525;28;20059;-90
2023/08/08 08:23:45;;;;;;;1.17;0.70;;;;;;;;;;5077368;28;20520;-89
2023/08/08 08:26:14;;;;;;;1.20;0.70;;;;;;;;;;5081477;28;20051;-91
2023/08/08 08:28:42;;;;;;;1.55;0.70;;;;;;;;;;5084841;28;20105;-82
2023/08/08 08:31:10;;;;;;;3.38;0.93;;;;;;;;;;5080407;28;20043;-86
2023/08/08 08:33:39;;;;;;;1.83;0.70;;;;;;;;;;5081238;28;20107;-88
2023/08/08 08:36:07;;;;;;;2.67;0.77;;;;;;;;;;5080963;28;20122;-86
2023/08/08 08:38:38;;;;;;;2.28;0.73;;;;;;;;;;5082524;28;20102;-89
2023/08/08 08:41:07;;;;;;;3.38;0.75;;;;;;;;;;5081278;28;20044;-88
2023/08/08 08:43:35;;;;;;;0.95;0.73;;;;;;;;;;5081903;28;20113;-90
2023/08/08 08:46:04;;;;;;;1.63;0.75;;;;;;;;;;5082549;28;20048;-88
2023/08/08 08:48:33;;;;;;;2.13;0.90;;;;;;;;;;5079392;28;20051;-90
2023/08/08 08:51:02;;;;;;;3.15;0.80;;;;;;;;;;5082248;28;20627;-91
2023/08/08 08:53:32;;;;;;;1.77;0.75;;;;;;;;;;5077580;28;20059;-89
2023/08/08 08:56:03;;;;;;;2.00;0.70;;;;;;;;;;5082871;28;20055;-91
2023/08/08 08:58:31;;;;;;;1.17;0.85;;;;;;;;;;5080332;28;20051;-91
2023/08/08 09:01:00;;;;;;;2.28;0.88;;;;;;;;;;5081352;28;20076;-91
2023/08/08 09:03:28;;;;;;;1.48;0.60;;;;;;;;;;5079493;28;20144;-87
2023/08/08 09:05:57;;;;;;;1.63;0.80;;;;;;;;;;5081875;28;20051;-87
2023/08/08 09:08:26;;;;;;;1.00;0.88;;;;;;;;;;5083143;28;20048;-90
2023/08/08 09:10:56;;;;;;;1.05;0.50;;;;;;;;;;5081092;28;20610;-90
2023/08/08 09:13:26;;;;;;;2.72;0.60;;;;;;;;;;5078078;28;20040;-85
2023/08/08 09:16:02;;;;;;;1.85;0.80;;;;;;;;;;5078123;28;20311;-89
2023/08/08 09:18:30;;;;;;;2.03;0.75;;;;;;;;;;5082972;28;20039;-88
2023/08/08 09:20:59;;;;;;;2.53;0.77;;;;;;;;;;5080667;28;20044;-89
2023/08/08 09:23:28;;;;;;;1.55;0.70;;;;;;;;;;5077690;28;20078;-86
2023/08/08 09:25:56;;;;;;;0.70;0.60;;;;;;;;;;5072078;28;20101;-87
2023/08/08 09:28:26;;;;;;;3.80;0.80;;;;;;;;;;5080146;28;20044;-91
2023/08/08 09:30:54;;;;;;;1.25;0.55;;;;;;;;;;5077020;28;20040;-92
2023/08/08 09:33:23;;;;;;;2.80;0.80;;;;;;;;;;5078436;28;20594;-90
2023/08/08 09:35:55;;;;;;;2.13;0.75;;;;;;;;;;5077647;28;20129;-92
2023/08/08 09:38:24;;;;;;;2.85;0.70;;;;;;;;;;5078255;28;20125;-88
2023/08/08 09:40:52;;;;;;;1.85;0.80;;;;;;;;;;5074155;28;20614;-87
2023/08/08 09:43:21;;;;;;;2.78;1.13;;;;;;;;;;5078162;28;20056;-92
2023/08/08 09:45:51;;;;;;;1.60;0.65;;;;;;;;;;5075688;28;20043;-90
2023/08/08 09:48:20;;;;;;;4.10;0.70;;;;;;;;;;5073937;28;20048;-85
2023/08/08 09:50:49;;;;;;;3.55;0.80;;;;;;;;;;5078897;28;20097;-88
2023/08/08 09:53:18;;;;;;;1.58;0.90;;;;;;;;;;5077333;28;20378;-89
2023/08/08 09:55:47;;;;;;;2.70;0.90;;;;;;;;;;5078040;28;20043;-88
2023/08/08 09:58:15;;;;;;;1.42;0.80;;;;;;;;;;5076674;28;20443;-87
2023/08/08 10:00:44;;;;;;;0.90;0.60;;;;;;;;;;5077050;28;20094;-84
2023/08/08 10:03:14;;;;;;;1.33;0.70;;;;;;;;;;5076594;28;20083;-85
2023/08/08 10:05:42;;;;;;;2.00;0.68;;;;;;;;;;5079080;28;20132;-90
2023/08/08 10:08:11;;;;;;;1.98;0.85;;;;;;;;;;5079310;28;20090;-89
2023/08/08 10:10:40;;;;;;;2.28;0.95;;;;;;;;;;5080833;28;20731;-89
2023/08/08 10:13:11;;;;;;;1.52;0.60;;;;;;;;;;5079240;28;20039;-88
2023/08/08 10:15:40;;;;;;;1.65;0.88;;;;;;;;;;5076692;28;20125;-90
2023/08/08 10:18:09;;;;;;;0.93;0.70;;;;;;;;;;5078296;28;20151;-89
2023/08/08 10:20:39;;;;;;;0.80;0.50;;;;;;;;;;5080086;28;20141;-89
2023/08/08 10:23:08;;;;;;;4.70;0.68;;;;;;;;;;5075600;28;20097;-88
2023/08/08 10:25:36;;;;;;;1.15;0.70;;;;;;;;;;5076250;28;20048;-87
2023/08/08 10:28:06;;;;;;;0.93;0.70;;;;;;;;;;5077400;28;20048;-87
2023/08/08 10:30:55;;;;;;;3.83;0.80;;;;;;;;;;5076305;28;20089;-86
2023/08/08 10:33:24;;;;;;;1.92;0.77;;;;;;;;;;5076130;28;20098;-87
2023/08/08 10:35:54;;;;;;;1.85;1.00;;;;;;;;;;5077879;28;20507;-87
2023/08/08 10:38:23;;;;;;;1.80;0.80;;;;;;;;;;5072968;28;20117;-87
2023/08/08 10:40:55;;;;;;;0.95;0.85;;;;;;;;;;5075304;28;20045;-86
2023/08/08 10:43:27;;;;;;;7.85;1.02;;;;;;;;;;5074903;28;20043;-86
2023/08/08 10:46:00;;;;;;;6.28;0.80;;;;;;;;;;5072300;28;20378;-87
2023/08/08 10:48:50;;;;;;;1.77;0.60;;;;;;;;;;5071001;28;20047;-87
2023/08/08 10:51:20;;;;;;;1.92;0.80;;;;;;;;;;5074515;28;20052;-87
2023/08/08 10:53:52;;;;;;;1.27;0.85;;;;;;;;;;5074551;28;20110;-87
2023/08/08 10:56:21;;;;;;;3.55;0.90;;;;;;;;;;5074487;28;20040;-87
2023/08/08 10:58:50;;;;;;;2.30;0.80;;;;;;;;;;5073963;28;20047;-86
2023/08/08 11:01:19;;;;;;;1.85;0.80;;;;;;;;;;5075812;28;20141;-86
2023/08/08 11:03:49;;;;;;;2.53;0.90;;;;;;;;;;5076043;28;20079;-87
2023/08/08 11:06:18;;;;;;;2.28;0.75;;;;;;;;;;5075356;28;20052;-87
2023/08/08 11:08:48;;;;;;;2.67;0.70;;;;;;;;;;5067177;28;20493;-89
2023/08/08 11:11:18;;;;;;;1.75;0.70;;;;;;;;;;5077910;28;20079;-86
2023/08/08 11:13:46;;;;;;;2.40;0.77;;;;;;;;;;5077136;28;20055;-83
2023/08/08 11:16:16;;;;;;;0.98;0.57;;;;;;;;;;5078440;28;20049;-88
2023/08/08 11:18:45;;;;;;;2.40;0.90;;;;;;;;;;5078513;28;20059;-88
2023/08/08 11:21:14;;;;;;;1.33;0.63;;;;;;;;;;5083666;28;20052;-85
2023/08/08 11:23:47;;;;;;;2.78;0.65;;;;;;;;;;5078822;28;20059;-88
2023/08/08 11:26:18;;;;;;;1.20;0.70;;;;;;;;;;5083643;28;20055;-87
2023/08/08 11:28:51;;;;;;;2.45;0.93;;;;;;;;;;5081808;28;20048;-88
2023/08/08 11:31:19;;;;;;;1.75;0.88;;;;;;;;;;5083230;28;20052;-84
2023/08/08 11:33:48;;;;;;;3.90;0.80;;;;;;;;;;5080775;28;20059;-89
2023/08/08 11:36:17;;;;;;;1.15;0.73;;;;;;;;;;5082296;28;20105;-88
2023/08/08 11:38:46;;;;;;;1.35;0.70;;;;;;;;;;5082189;28;20335;-86
2023/08/08 11:41:14;;;;;;;4.13;0.90;;;;;;;;;;5084148;28;20151;-87
2023/08/08 11:43:45;;;;;;;4.53;0.70;;;;;;;;;;5082470;28;20044;-89
2023/08/08 11:46:14;;;;;;;2.78;0.60;;;;;;;;;;5079811;28;20416;-89
2023/08/08 11:48:42;;;;;;;1.00;0.70;;;;;;;;;;5079043;28;20044;-90
2023/08/08 11:51:11;;;;;;;2.78;0.80;;;;;;;;;;5081089;28;20521;-89
2023/08/08 11:53:49;;;;;;;2.20;0.93;;;;;;;;;;5076840;28;20055;-89
2023/08/08 11:56:18;;;;;;;2.22;1.13;;;;;;;;;;5074953;28;20078;-85
2023/08/08 11:58:48;;;;;;;2.92;0.65;;;;;;;;;;5081518;28;20113;-85
2023/08/08 12:01:17;;;;;;;2.65;0.73;;;;;;;;;;5080241;28;20659;-89
2023/08/08 12:03:47;;;;;;;1.40;0.90;;;;;;;;;;5080190;28;20048;-87
2023/08/08 12:06:16;;;;;;;0.85;0.50;;;;;;;;;;5079269;28;20130;-86
2023/08/08 12:08:45;;;;;;;2.75;0.80;;;;;;;;;;5078469;28;20044;-87
2023/08/08 12:11:14;;;;;;;1.30;0.73;;;;;;;;;;5081017;28;20074;-89
2023/08/08 12:13:43;;;;;;;5.53;0.82;;;;;;;;;;5076439;28;20040;-88
2023/08/08 12:16:13;;;;;;;1.90;0.73;;;;;;;;;;5081370;28;20083;-88
2023/08/08 12:18:45;;;;;;;3.90;0.85;;;;;;;;;;5077747;28;20051;-89
2023/08/08 12:21:14;;;;;;;4.53;0.70;;;;;;;;;;5081683;28;20052;-89
2023/08/08 12:23:43;;;;;;;1.40;0.50;;;;;;;;;;5077570;28;20776;-87
2023/08/08 12:26:11;;;;;;;1.27;0.60;;;;;;;;;;5078255;28;20126;-87
2023/08/08 12:28:39;;;;;;;0.80;0.60;;;;;;;;;;5079601;28;20051;-89
2023/08/08 12:31:08;;;;;;;2.05;0.60;;;;;;;;;;5077133;28;20055;-84
2023/08/08 12:33:38;;;;;;;2.92;0.70;;;;;;;;;;5078912;28;20116;-88
2023/08/08 12:36:07;;;;;;;0.47;0.40;;;;;;;;;;5079893;28;20048;-88
2023/08/08 12:38:35;;;;;;;1.63;0.55;;;;;;;;;;5081062;28;20063;-88
2023/08/08 12:41:04;;;;;;;1.23;0.60;;;;;;;;;;5076595;28;20089;-89
2023/08/08 12:43:34;;;;;;;1.80;0.80;;;;;;;;;;5077752;28;20040;-83
2023/08/08 12:46:02;;;;;;;1.70;0.75;;;;;;;;;;5076230;28;20455;-89
2023/08/08 12:48:31;;;;;;;1.90;0.90;;;;;;;;;;5075146;28;20041;-85
2023/08/08 12:51:00;;;;;;;2.20;0.68;;;;;;;;;;5080485;28;20164;-87
2023/08/08 12:53:29;;;;;;;1.65;0.77;;;;;;;;;;5080176;28;20052;-90
2023/08/08 12:55:57;;;;;;;1.27;0.77;;;;;;;;;;5077263;28;20040;-89
2023/08/08 12:58:26;;;;;;;1.90;0.60;;;;;;;;;;5077523;28;20576;-88
2023/08/08 13:00:54;;;;;;;5.78;0.77;;;;;;;;;;5081923;28;20143;-84
2023/08/08 13:03:22;;;;;;;1.70;0.70;;;;;;;;;;5079647;28;20055;-87
2023/08/08 13:05:52;;;;;;;2.63;0.82;;;;;;;;;;5077224;28;20126;-86
2023/08/08 13:08:21;;;;;;;2.08;0.82;;;;;;;;;;5077543;28;20058;-87
2023/08/08 13:10:50;;;;;;;1.10;0.70;;;;;;;;;;5081043;28;20089;-88
2023/08/08 13:13:18;;;;;;;1.08;0.85;;;;;;;;;;5078692;28;20428;-86
2023/08/08 13:15:47;;;;;;;1.25;0.55;;;;;;;;;;5080394;28;20048;-87
2023/08/08 13:18:16;;;;;;;4.97;0.98;;;;;;;;;;5075933;28;20109;-88
2023/08/08 13:20:44;;;;;;;2.15;0.70;;;;;;;;;;5074349;28;20205;-88
2023/08/08 13:23:12;;;;;;;1.98;0.77;;;;;;;;;;5074036;28;20047;-86
2023/08/08 13:25:42;;;;;;;1.30;0.80;;;;;;;;;;5078078;28;20109;-87
2023/08/08 13:28:11;;;;;;;2.17;1.15;;;;;;;;;;5078135;28;20048;-85
2023/08/08 13:30:41;;;;;;;4.10;1.75;;;;;;;;;;5078658;28;20145;-83
2023/08/08 13:33:09;;;;;;;4.50;1.60;;;;;;;;;;5077405;28;20040;-84
2023/08/08 13:35:38;;;;;;;2.88;1.20;;;;;;;;;;5079263;28;20052;-84
2023/08/08 13:38:07;;;;;;;2.78;1.30;;;;;;;;;;5080013;28;20118;-88
2023/08/08 13:40:36;;;;;;;3.45;1.70;;;;;;;;;;5076885;28;20056;-86
2023/08/08 13:43:06;;;;;;;3.70;1.60;;;;;;;;;;5079901;28;20423;-83
2023/08/08 13:45:34;;;;;;;4.35;0.80;;;;;;;;;;5077005;28;20112;-87
2023/08/08 13:48:03;;;;;;;1.40;0.65;;;;;;;;;;5077974;28;20464;-86
2023/08/08 13:50:32;;;;;;;1.33;0.60;;;;;;;;;;5079692;28;20662;-87
2023/08/08 13:53:00;;;;;;;1.25;0.60;;;;;;;;;;5076960;28;20523;-85
2023/08/08 13:55:29;;;;;;;1.73;0.80;;;;;;;;;;5078249;28;20416;-88
2023/08/08 13:57:58;;;;;;;2.47;0.63;;;;;;;;;;5075597;28;20044;-83
2023/08/08 14:00:28;;;;;;;1.35;0.70;;;;;;;;;;5077552;28;20078;-82
2023/08/08 14:02:56;;;;;;;2.83;0.90;;;;;;;;;;5079814;28;20054;-86
2023/08/08 14:05:26;;;;;;;1.88;0.98;;;;;;;;;;5077221;28;20734;-86
2023/08/08 14:07:55;;;;;;;2.08;0.80;;;;;;;;;;5077104;28;20043;-88
2023/08/08 14:10:23;;;;;;;5.10;0.75;;;;;;;;;;5081508;28;20493;-86
2023/08/08 14:12:52;;;;;;;2.40;0.70;;;;;;;;;;5076155;28;20090;-85
2023/08/08 14:15:21;;;;;;;3.33;1.08;;;;;;;;;;5076659;28;20048;-88
2023/08/08 14:17:51;;;;;;;1.80;0.80;;;;;;;;;;5079055;28;20048;-85
2023/08/08 14:20:19;;;;;;;1.80;0.85;;;;;;;;;;5078356;28;20081;-89
2023/08/08 14:22:48;;;;;;;4.40;1.00;;;;;;;;;;5073233;28;20054;-88
2023/08/08 14:25:17;;;;;;;1.73;1.05;;;;;;;;;;5078210;28;20052;-85
2023/08/08 14:27:45;;;;;;;4.07;1.05;;;;;;;;;;5079505;28;20378;-87
2023/08/08 14:30:14;;;;;;;0.95;0.82;;;;;;;;;;5077781;28;20064;-86
2023/08/08 14:32:42;;;;;;;2.00;0.90;;;;;;;;;;5079602;28;20036;-85
2023/08/08 14:35:12;;;;;;;1.30;0.98;;;;;;;;;;5075881;28;20113;-86
2023/08/08 14:37:41;;;;;;;2.75;1.02;;;;;;;;;;5079941;28;20048;-85
2023/08/08 14:40:10;;;;;;;1.77;0.98;;;;;;;;;;5077602;28;20774;-88
2023/08/08 14:42:38;;;;;;;1.95;1.00;;;;;;;;;;5079872;28;20055;-84
2023/08/08 14:45:07;;;;;;;1.80;0.73;;;;;;;;;;5078365;28;20120;-87
2023/08/08 14:47:35;;;;;;;1.85;1.05;;;;;;;;;;5085938;28;20385;-85
2023/08/08 14:50:04;;;;;;;2.10;1.10;;;;;;;;;;5080414;28;20055;-90
2023/08/08 14:52:34;;;;;;;2.13;1.13;;;;;;;;;;5082577;28;20074;-87
2023/08/08 14:55:03;;;;;;;1.13;0.80;;;;;;;;;;5080747;28;20075;-84